sensor_id;sensor_type;location;lat;lon;timestamp;temperature;humidity
2226;DHT22;1119;48.288;8.726;2023-07-02T00:00:18;18.50;99.90
2226;DHT22;1119;48.288;8.726;2023-07-02T00:03:06;18.50;99.90
2226;DHT22;1119;48.288;8.726;2023-07-02T00:05:57;18.40;99.90
2226;DHT22;1119;48.288;8.726;2023-07-02T00:08:45;18.30;99.90
2226;DHT22;1119;48.288;8.726;2023-07-02T00:11:32;18.40;99.90
2226;DHT22;1119;48.288;8.726;2023-07-02T00:14:20;18.30;99.90
2226;DHT22;1119;48.288;8.726;2023-07-02T00:17:07;18.30;99.90
2226;DHT22;1119;48.288;8.726;2023-07-02T00:19:58;18.30;99.90
2226;DHT22;1119;48.288;8.726;2023-07-02T00:22:53;18.30;99.90
2226;DHT22;1119;48.288;8.726;2023-07-02T00:25:42;18.30;99.90
2226;DHT22;1119;48.288;8.726;2023-07-02T00:28:29;18.30;99.90
2226;DHT22;1119;48.288;8.726;2023-07-02T00:31:17;18.30;99.90
2226;DHT22;1119;48.288;8.726;2023-07-02T00:34:05;18.30;99.90
2226;DHT22;1119;48.288;8.726;2023-07-02T00:36:52;18.40;99.90
2226;DHT22;1119;48.288;8.726;2023-07-02T00:39:42;18.50;99.90
2226;DHT22;1119;48.288;8.726;2023-07-02T00:42:29;18.50;99.90
2226;DHT22;1119;48.288;8.726;2023-07-02T00:45:17;18.50;99.90
2226;DHT22;1119;48.288;8.726;2023-07-02T00:48:05;18.40;99.90
2226;DHT22;1119;48.288;8.726;2023-07-02T00:50:53;18.30;99.90
2226;DHT22;1119;48.288;8.726;2023-07-02T00:53:40;18.20;99.90
2226;DHT22;1119;48.288;8.726;2023-07-02T00:56:29;18.20;99.90
2226;DHT22;1119;48.288;8.726;2023-07-02T00:59:17;18.20;99.90
2226;DHT22;1119;48.288;8.726;2023-07-02T01:02:04;18.10;99.90
2226;DHT22;1119;48.288;8.726;2023-07-02T01:04:52;18.10;99.90
2226;DHT22;1119;48.288;8.726;2023-07-02T01:07:45;18.10;99.90
2226;DHT22;1119;48.288;8.726;2023-07-02T01:10:32;18.20;99.90
2226;DHT22;1119;48.288;8.726;2023-07-02T01:13:23;18.20;99.90
2226;DHT22;1119;48.288;8.726;2023-07-02T01:16:12;18.20;99.90
2226;DHT22;1119;48.288;8.726;2023-07-02T01:19:02;18.30;99.90
2226;DHT22;1119;48.288;8.726;2023-07-02T01:21:54;18.20;99.90
2226;DHT22;1119;48.288;8.726;2023-07-02T01:24:41;18.20;99.90
2226;DHT22;1119;48.288;8.726;2023-07-02T01:27:29;18.20;99.90
2226;DHT22;1119;48.288;8.726;2023-07-02T01:30:17;18.20;99.90
2226;DHT22;1119;48.288;8.726;2023-07-02T01:33:05;18.20;99.90
2226;DHT22;1119;48.288;8.726;2023-07-02T01:35:52;18.30;99.90
2226;DHT22;1119;48.288;8.726;2023-07-02T01:38:41;18.30;99.90
2226;DHT22;1119;48.288;8.726;2023-07-02T01:41:29;18.30;99.90
2226;DHT22;1119;48.288;8.726;2023-07-02T01:44:17;18.30;99.90
2226;DHT22;1119;48.288;8.726;2023-07-02T01:47:05;18.20;99.90
2226;DHT22;1119;48.288;8.726;2023-07-02T01:49:53;18.20;99.90
2226;DHT22;1119;48.288;8.726;2023-07-02T01:52:40;18.20;99.90
2226;DHT22;1119;48.288;8.726;2023-07-02T01:55:29;18.10;99.90
2226;DHT22;1119;48.288;8.726;2023-07-02T01:58:17;18.00;99.90
2226;DHT22;1119;48.288;8.726;2023-07-02T02:01:05;18.00;99.90
2226;DHT22;1119;48.288;8.726;2023-07-02T02:03:52;18.00;99.90
2226;DHT22;1119;48.288;8.726;2023-07-02T02:06:40;18.00;99.90
2226;DHT22;1119;48.288;8.726;2023-07-02T02:09:28;18.00;99.90
2226;DHT22;1119;48.288;8.726;2023-07-02T02:12:19;18.10;99.90
2226;DHT22;1119;48.288;8.726;2023-07-02T02:15:07;18.10;99.90
2226;DHT22;1119;48.288;8.726;2023-07-02T02:17:56;18.00;99.90
2226;DHT22;1119;48.288;8.726;2023-07-02T02:20:44;18.00;99.90
2226;DHT22;1119;48.288;8.726;2023-07-02T02:23:32;18.10;99.90
2226;DHT22;1119;48.288;8.726;2023-07-02T02:26:20;18.20;99.90
2226;DHT22;1119;48.288;8.726;2023-07-02T02:29:10;18.20;99.90
2226;DHT22;1119;48.288;8.726;2023-07-02T02:31:57;18.30;99.90
2226;DHT22;1119;48.288;8.726;2023-07-02T02:34:45;18.40;99.90
2226;DHT22;1119;48.288;8.726;2023-07-02T02:37:34;18.40;99.90
2226;DHT22;1119;48.288;8.726;2023-07-02T02:40:23;18.50;99.90
2226;DHT22;1119;48.288;8.726;2023-07-02T02:43:10;18.50;99.90
2226;DHT22;1119;48.288;8.726;2023-07-02T02:46:00;18.50;99.90
2226;DHT22;1119;48.288;8.726;2023-07-02T02:48:47;18.50;99.90
2226;DHT22;1119;48.288;8.726;2023-07-02T02:51:35;18.40;99.90
2226;DHT22;1119;48.288;8.726;2023-07-02T02:54:23;18.30;99.90
2226;DHT22;1119;48.288;8.726;2023-07-02T02:57:10;18.10;99.90
2226;DHT22;1119;48.288;8.726;2023-07-02T03:00:00;18.00;99.90
2226;DHT22;1119;48.288;8.726;2023-07-02T03:03:16;17.90;99.90
2226;DHT22;1119;48.288;8.726;2023-07-02T03:06:06;17.80;99.90
2226;DHT22;1119;48.288;8.726;2023-07-02T03:08:53;17.70;99.90
2226;DHT22;1119;48.288;8.726;2023-07-02T03:11:41;17.70;99.90
2226;DHT22;1119;48.288;8.726;2023-07-02T03:14:29;17.60;99.90
2226;DHT22;1119;48.288;8.726;2023-07-02T03:17:17;17.50;99.90
2226;DHT22;1119;48.288;8.726;2023-07-02T03:20:07;17.40;99.90
2226;DHT22;1119;48.288;8.726;2023-07-02T03:22:55;17.40;99.90
2226;DHT22;1119;48.288;8.726;2023-07-02T03:25:43;17.40;99.90
2226;DHT22;1119;48.288;8.726;2023-07-02T03:28:30;17.30;99.90
2226;DHT22;1119;48.288;8.726;2023-07-02T03:31:20;17.30;99.90
2226;DHT22;1119;48.288;8.726;2023-07-02T03:34:08;17.20;99.90
2226;DHT22;1119;48.288;8.726;2023-07-02T03:36:58;17.30;99.90
2226;DHT22;1119;48.288;8.726;2023-07-02T03:39:45;17.30;99.90
2226;DHT22;1119;48.288;8.726;2023-07-02T03:42:33;17.30;99.90
2226;DHT22;1119;48.288;8.726;2023-07-02T03:45:20;17.30;99.90
2226;DHT22;1119;48.288;8.726;2023-07-02T03:48:08;17.30;99.90
2226;DHT22;1119;48.288;8.726;2023-07-02T03:50:55;17.40;99.90
2226;DHT22;1119;48.288;8.726;2023-07-02T03:53:44;17.50;99.90
2226;DHT22;1119;48.288;8.726;2023-07-02T03:56:32;17.50;99.90
2226;DHT22;1119;48.288;8.726;2023-07-02T03:59:20;17.40;99.90
2226;DHT22;1119;48.288;8.726;2023-07-02T04:02:07;17.50;99.90
2226;DHT22;1119;48.288;8.726;2023-07-02T04:04:55;17.50;99.90
2226;DHT22;1119;48.288;8.726;2023-07-02T04:07:42;17.40;99.90
2226;DHT22;1119;48.288;8.726;2023-07-02T04:10:31;17.30;99.90
2226;DHT22;1119;48.288;8.726;2023-07-02T04:13:19;17.40;99.90
2226;DHT22;1119;48.288;8.726;2023-07-02T04:16:07;17.30;99.90
2226;DHT22;1119;48.288;8.726;2023-07-02T04:18:54;17.30;99.90
2226;DHT22;1119;48.288;8.726;2023-07-02T04:21:42;17.30;99.90
2226;DHT22;1119;48.288;8.726;2023-07-02T04:24:29;17.30;99.90
2226;DHT22;1119;48.288;8.726;2023-07-02T04:27:18;17.40;99.90
2226;DHT22;1119;48.288;8.726;2023-07-02T04:30:07;17.50;99.90
2226;DHT22;1119;48.288;8.726;2023-07-02T04:32:55;17.50;99.90
2226;DHT22;1119;48.288;8.726;2023-07-02T04:38:31;17.50;99.90
2226;DHT22;1119;48.288;8.726;2023-07-02T04:41:19;17.50;99.90
2226;DHT22;1119;48.288;8.726;2023-07-02T04:44:08;17.40;99.90
2226;DHT22;1119;48.288;8.726;2023-07-02T04:46:57;17.40;99.90
2226;DHT22;1119;48.288;8.726;2023-07-02T04:49:45;17.40;99.90
2226;DHT22;1119;48.288;8.726;2023-07-02T04:52:33;17.40;99.90
2226;DHT22;1119;48.288;8.726;2023-07-02T04:55:21;17.40;99.90
2226;DHT22;1119;48.288;8.726;2023-07-02T04:58:08;17.40;99.90
2226;DHT22;1119;48.288;8.726;2023-07-02T05:00:57;17.30;99.90
2226;DHT22;1119;48.288;8.726;2023-07-02T05:03:45;17.30;99.90
2226;DHT22;1119;48.288;8.726;2023-07-02T05:06:32;17.30;99.90
2226;DHT22;1119;48.288;8.726;2023-07-02T05:09:20;17.30;99.90
2226;DHT22;1119;48.288;8.726;2023-07-02T05:12:09;17.40;99.90
2226;DHT22;1119;48.288;8.726;2023-07-02T05:14:56;17.50;99.90
2226;DHT22;1119;48.288;8.726;2023-07-02T05:17:45;17.50;99.90
2226;DHT22;1119;48.288;8.726;2023-07-02T05:20:33;17.70;99.90
2226;DHT22;1119;48.288;8.726;2023-07-02T05:23:21;17.70;99.90
2226;DHT22;1119;48.288;8.726;2023-07-02T05:26:08;17.90;99.90
2226;DHT22;1119;48.288;8.726;2023-07-02T05:28:56;17.90;99.90
2226;DHT22;1119;48.288;8.726;2023-07-02T05:31:43;17.90;99.90
2226;DHT22;1119;48.288;8.726;2023-07-02T05:34:32;18.00;99.90
2226;DHT22;1119;48.288;8.726;2023-07-02T05:37:20;18.00;99.90
2226;DHT22;1119;48.288;8.726;2023-07-02T05:40:08;18.00;99.90
2226;DHT22;1119;48.288;8.726;2023-07-02T05:42:56;17.90;99.90
2226;DHT22;1119;48.288;8.726;2023-07-02T05:45:44;17.80;99.90
2226;DHT22;1119;48.288;8.726;2023-07-02T05:48:31;17.80;99.90
2226;DHT22;1119;48.288;8.726;2023-07-02T05:51:21;17.80;99.90
2226;DHT22;1119;48.288;8.726;2023-07-02T05:54:09;17.80;99.90
2226;DHT22;1119;48.288;8.726;2023-07-02T05:56:57;17.80;99.90
2226;DHT22;1119;48.288;8.726;2023-07-02T05:59:44;17.70;99.90
2226;DHT22;1119;48.288;8.726;2023-07-02T06:02:32;17.60;99.90
2226;DHT22;1119;48.288;8.726;2023-07-02T06:05:20;17.70;99.90
2226;DHT22;1119;48.288;8.726;2023-07-02T06:08:09;17.70;99.90
2226;DHT22;1119;48.288;8.726;2023-07-02T06:10:57;17.70;99.90
2226;DHT22;1119;48.288;8.726;2023-07-02T06:13:45;17.70;99.90
2226;DHT22;1119;48.288;8.726;2023-07-02T06:16:32;17.70;99.90
2226;DHT22;1119;48.288;8.726;2023-07-02T06:19:20;17.70;99.90
2226;DHT22;1119;48.288;8.726;2023-07-02T06:22:08;17.80;99.90
2226;DHT22;1119;48.288;8.726;2023-07-02T06:24:57;17.90;99.90
2226;DHT22;1119;48.288;8.726;2023-07-02T06:27:44;18.00;99.90
2226;DHT22;1119;48.288;8.726;2023-07-02T06:30:32;18.00;99.90
2226;DHT22;1119;48.288;8.726;2023-07-02T06:33:20;18.00;99.90
2226;DHT22;1119;48.288;8.726;2023-07-02T06:36:07;18.20;99.90
2226;DHT22;1119;48.288;8.726;2023-07-02T06:38:56;18.40;99.90
2226;DHT22;1119;48.288;8.726;2023-07-02T06:41:46;18.60;99.90
2226;DHT22;1119;48.288;8.726;2023-07-02T06:44:37;18.70;99.90
2226;DHT22;1119;48.288;8.726;2023-07-02T06:47:25;18.80;99.90
2226;DHT22;1119;48.288;8.726;2023-07-02T06:50:13;18.90;99.90
2226;DHT22;1119;48.288;8.726;2023-07-02T06:53:01;18.90;99.90
2226;DHT22;1119;48.288;8.726;2023-07-02T06:55:49;18.80;99.90
2226;DHT22;1119;48.288;8.726;2023-07-02T06:58:39;18.70;99.90
2226;DHT22;1119;48.288;8.726;2023-07-02T07:01:27;18.60;99.90
2226;DHT22;1119;48.288;8.726;2023-07-02T07:04:15;18.80;99.90
2226;DHT22;1119;48.288;8.726;2023-07-02T07:07:03;18.80;99.90
2226;DHT22;1119;48.288;8.726;2023-07-02T07:09:50;19.10;99.90
2226;DHT22;1119;48.288;8.726;2023-07-02T07:12:38;19.80;98.20
2226;DHT22;1119;48.288;8.726;2023-07-02T07:15:29;20.10;97.00
2226;DHT22;1119;48.288;8.726;2023-07-02T07:18:17;20.40;96.50
2226;DHT22;1119;48.288;8.726;2023-07-02T07:21:05;20.80;95.60
2226;DHT22;1119;48.288;8.726;2023-07-02T07:23:53;21.30;94.60
2226;DHT22;1119;48.288;8.726;2023-07-02T07:26:40;21.90;94.70
2226;DHT22;1119;48.288;8.726;2023-07-02T07:29:28;22.30;92.70
2226;DHT22;1119;48.288;8.726;2023-07-02T07:32:17;22.30;91.50
2226;DHT22;1119;48.288;8.726;2023-07-02T07:35:05;21.90;91.60
2226;DHT22;1119;48.288;8.726;2023-07-02T07:37:53;21.40;91.20
2226;DHT22;1119;48.288;8.726;2023-07-02T07:40:41;21.20;92.00
2226;DHT22;1119;48.288;8.726;2023-07-02T07:43:29;21.20;91.70
2226;DHT22;1119;48.288;8.726;2023-07-02T07:46:16;21.30;91.80
2226;DHT22;1119;48.288;8.726;2023-07-02T07:49:06;21.20;91.10
2226;DHT22;1119;48.288;8.726;2023-07-02T07:51:54;20.90;90.60
2226;DHT22;1119;48.288;8.726;2023-07-02T07:54:41;20.60;90.70
2226;DHT22;1119;48.288;8.726;2023-07-02T07:57:29;20.20;91.00
2226;DHT22;1119;48.288;8.726;2023-07-02T08:00:17;20.00;91.00
2226;DHT22;1119;48.288;8.726;2023-07-02T08:03:05;19.90;90.70
2226;DHT22;1119;48.288;8.726;2023-07-02T08:05:54;19.90;90.40
2226;DHT22;1119;48.288;8.726;2023-07-02T08:08:42;20.00;89.60
2226;DHT22;1119;48.288;8.726;2023-07-02T08:11:30;20.20;87.10
2226;DHT22;1119;48.288;8.726;2023-07-02T08:14:17;20.60;84.30
2226;DHT22;1119;48.288;8.726;2023-07-02T08:17:05;20.80;84.10
2226;DHT22;1119;48.288;8.726;2023-07-02T08:19:53;20.90;83.90
2226;DHT22;1119;48.288;8.726;2023-07-02T08:22:42;21.00;83.20
2226;DHT22;1119;48.288;8.726;2023-07-02T08:25:29;20.90;82.00
2226;DHT22;1119;48.288;8.726;2023-07-02T08:28:17;20.70;82.90
2226;DHT22;1119;48.288;8.726;2023-07-02T08:31:05;20.90;80.50
2226;DHT22;1119;48.288;8.726;2023-07-02T08:33:53;21.20;79.30
2226;DHT22;1119;48.288;8.726;2023-07-02T08:36:40;21.20;78.80
2226;DHT22;1119;48.288;8.726;2023-07-02T08:39:31;21.10;80.00
2226;DHT22;1119;48.288;8.726;2023-07-02T08:42:19;21.30;79.00
2226;DHT22;1119;48.288;8.726;2023-07-02T08:45:07;21.30;78.60
2226;DHT22;1119;48.288;8.726;2023-07-02T08:47:55;21.30;79.30
2226;DHT22;1119;48.288;8.726;2023-07-02T08:50:44;21.30;78.80
2226;DHT22;1119;48.288;8.726;2023-07-02T08:53:31;21.40;77.90
2226;DHT22;1119;48.288;8.726;2023-07-02T08:56:21;21.60;79.20
2226;DHT22;1119;48.288;8.726;2023-07-02T08:59:08;21.80;76.00
2226;DHT22;1119;48.288;8.726;2023-07-02T09:01:56;22.10;75.50
2226;DHT22;1119;48.288;8.726;2023-07-02T09:04:44;22.30;73.50
2226;DHT22;1119;48.288;8.726;2023-07-02T09:07:31;22.40;74.10
2226;DHT22;1119;48.288;8.726;2023-07-02T09:10:26;22.60;74.10
2226;DHT22;1119;48.288;8.726;2023-07-02T09:13:16;22.60;71.50
2226;DHT22;1119;48.288;8.726;2023-07-02T09:16:03;22.50;70.90
2226;DHT22;1119;48.288;8.726;2023-07-02T09:18:56;22.70;73.70
2226;DHT22;1119;48.288;8.726;2023-07-02T09:21:46;22.70;71.70
2226;DHT22;1119;48.288;8.726;2023-07-02T09:24:34;22.50;71.80
2226;DHT22;1119;48.288;8.726;2023-07-02T09:27:22;22.40;70.20
2226;DHT22;1119;48.288;8.726;2023-07-02T09:30:21;22.40;71.10
2226;DHT22;1119;48.288;8.726;2023-07-02T09:33:09;22.50;71.20
2226;DHT22;1119;48.288;8.726;2023-07-02T09:35:57;22.60;70.70
2226;DHT22;1119;48.288;8.726;2023-07-02T09:38:45;22.70;71.20
2226;DHT22;1119;48.288;8.726;2023-07-02T09:41:33;22.80;69.50
2226;DHT22;1119;48.288;8.726;2023-07-02T09:44:21;22.90;68.40
2226;DHT22;1119;48.288;8.726;2023-07-02T09:47:12;22.90;67.90
2226;DHT22;1119;48.288;8.726;2023-07-02T09:50:04;22.90;67.60
2226;DHT22;1119;48.288;8.726;2023-07-02T09:52:52;23.00;68.90
2226;DHT22;1119;48.288;8.726;2023-07-02T09:55:42;23.00;65.90
2226;DHT22;1119;48.288;8.726;2023-07-02T09:58:30;23.00;64.30
2226;DHT22;1119;48.288;8.726;2023-07-02T10:01:18;23.00;64.00
2226;DHT22;1119;48.288;8.726;2023-07-02T10:04:14;23.20;64.60
2226;DHT22;1119;48.288;8.726;2023-07-02T10:07:05;23.40;65.30
2226;DHT22;1119;48.288;8.726;2023-07-02T10:09:53;23.60;64.10
2226;DHT22;1119;48.288;8.726;2023-07-02T10:12:46;23.80;64.40
2226;DHT22;1119;48.288;8.726;2023-07-02T10:15:33;23.90;61.40
2226;DHT22;1119;48.288;8.726;2023-07-02T10:18:26;23.90;62.50
2226;DHT22;1119;48.288;8.726;2023-07-02T10:21:16;23.80;60.40
2226;DHT22;1119;48.288;8.726;2023-07-02T10:24:11;23.70;62.60
2226;DHT22;1119;48.288;8.726;2023-07-02T10:27:01;23.80;61.20
2226;DHT22;1119;48.288;8.726;2023-07-02T10:29:50;23.90;59.00
2226;DHT22;1119;48.288;8.726;2023-07-02T10:32:38;23.90;59.10
2226;DHT22;1119;48.288;8.726;2023-07-02T10:35:25;23.90;59.80
2226;DHT22;1119;48.288;8.726;2023-07-02T10:38:17;23.80;58.50
2226;DHT22;1119;48.288;8.726;2023-07-02T10:41:06;24.00;59.80
2226;DHT22;1119;48.288;8.726;2023-07-02T10:43:54;24.30;57.20
2226;DHT22;1119;48.288;8.726;2023-07-02T10:46:52;24.20;56.30
2226;DHT22;1119;48.288;8.726;2023-07-02T10:49:40;24.00;56.60
2226;DHT22;1119;48.288;8.726;2023-07-02T10:52:37;23.80;55.00
2226;DHT22;1119;48.288;8.726;2023-07-02T10:55:27;23.70;54.70
2226;DHT22;1119;48.288;8.726;2023-07-02T10:58:14;23.60;55.40
2226;DHT22;1119;48.288;8.726;2023-07-02T11:01:02;23.60;55.80
2226;DHT22;1119;48.288;8.726;2023-07-02T11:03:56;23.70;57.50
2226;DHT22;1119;48.288;8.726;2023-07-02T11:06:47;23.80;56.60
2226;DHT22;1119;48.288;8.726;2023-07-02T11:09:35;24.00;57.10
2226;DHT22;1119;48.288;8.726;2023-07-02T11:12:29;24.20;57.10
2226;DHT22;1119;48.288;8.726;2023-07-02T11:15:17;24.40;55.70
2226;DHT22;1119;48.288;8.726;2023-07-02T11:18:09;24.40;54.90
2226;DHT22;1119;48.288;8.726;2023-07-02T11:20:57;24.60;53.50
2226;DHT22;1119;48.288;8.726;2023-07-02T11:23:45;24.80;54.60
2226;DHT22;1119;48.288;8.726;2023-07-02T11:26:36;25.00;53.00
2226;DHT22;1119;48.288;8.726;2023-07-02T11:29:26;25.20;51.30
2226;DHT22;1119;48.288;8.726;2023-07-02T11:32:15;25.00;51.60
2226;DHT22;1119;48.288;8.726;2023-07-02T11:35:02;25.00;52.40
2226;DHT22;1119;48.288;8.726;2023-07-02T11:37:50;25.00;53.20
2226;DHT22;1119;48.288;8.726;2023-07-02T11:40:38;25.00;54.10
2226;DHT22;1119;48.288;8.726;2023-07-02T11:43:26;25.10;53.00
2226;DHT22;1119;48.288;8.726;2023-07-02T11:46:15;25.10;54.00
2226;DHT22;1119;48.288;8.726;2023-07-02T11:49:03;25.00;53.90
2226;DHT22;1119;48.288;8.726;2023-07-02T11:51:53;24.80;53.90
2226;DHT22;1119;48.288;8.726;2023-07-02T11:54:41;24.60;53.80
2226;DHT22;1119;48.288;8.726;2023-07-02T11:57:29;24.50;54.20
2226;DHT22;1119;48.288;8.726;2023-07-02T12:00:17;24.60;54.90
2226;DHT22;1119;48.288;8.726;2023-07-02T12:03:06;24.50;55.00
2226;DHT22;1119;48.288;8.726;2023-07-02T12:05:54;24.40;55.30
2226;DHT22;1119;48.288;8.726;2023-07-02T12:08:41;24.50;55.80
2226;DHT22;1119;48.288;8.726;2023-07-02T12:11:29;24.60;55.20
2226;DHT22;1119;48.288;8.726;2023-07-02T12:14:17;24.80;54.40
2226;DHT22;1119;48.288;8.726;2023-07-02T12:17:05;25.00;54.40
2226;DHT22;1119;48.288;8.726;2023-07-02T12:19:53;24.90;52.80
2226;DHT22;1119;48.288;8.726;2023-07-02T12:22:41;24.60;53.40
2226;DHT22;1119;48.288;8.726;2023-07-02T12:25:30;24.50;54.50
2226;DHT22;1119;48.288;8.726;2023-07-02T12:28:18;24.40;54.50
2226;DHT22;1119;48.288;8.726;2023-07-02T12:31:05;24.40;55.30
2226;DHT22;1119;48.288;8.726;2023-07-02T12:33:53;24.70;54.70
2226;DHT22;1119;48.288;8.726;2023-07-02T12:36:42;24.60;54.00
2226;DHT22;1119;48.288;8.726;2023-07-02T12:39:29;24.50;54.10
2226;DHT22;1119;48.288;8.726;2023-07-02T12:42:17;24.50;55.20
2226;DHT22;1119;48.288;8.726;2023-07-02T12:45:06;24.70;55.70
2226;DHT22;1119;48.288;8.726;2023-07-02T12:47:54;25.00;54.90
2226;DHT22;1119;48.288;8.726;2023-07-02T12:50:42;25.00;53.80
2226;DHT22;1119;48.288;8.726;2023-07-02T12:53:41;25.10;52.90
2226;DHT22;1119;48.288;8.726;2023-07-02T12:56:29;25.00;52.40
2226;DHT22;1119;48.288;8.726;2023-07-02T12:59:17;25.00;52.90
2226;DHT22;1119;48.288;8.726;2023-07-02T13:02:05;25.10;51.90
2226;DHT22;1119;48.288;8.726;2023-07-02T13:04:53;25.10;52.50
2226;DHT22;1119;48.288;8.726;2023-07-02T13:07:41;25.00;52.40
2226;DHT22;1119;48.288;8.726;2023-07-02T13:10:30;24.90;52.70
2226;DHT22;1119;48.288;8.726;2023-07-02T13:13:19;24.70;53.10
2226;DHT22;1119;48.288;8.726;2023-07-02T13:16:06;24.60;54.10
2226;DHT22;1119;48.288;8.726;2023-07-02T13:18:55;24.50;54.40
2226;DHT22;1119;48.288;8.726;2023-07-02T13:21:43;24.40;54.50
2226;DHT22;1119;48.288;8.726;2023-07-02T13:24:33;24.20;54.90
2226;DHT22;1119;48.288;8.726;2023-07-02T13:27:23;24.30;54.20
2226;DHT22;1119;48.288;8.726;2023-07-02T13:30:11;24.20;55.20
2226;DHT22;1119;48.288;8.726;2023-07-02T13:32:59;24.00;55.40
2226;DHT22;1119;48.288;8.726;2023-07-02T13:35:46;24.00;55.80
2226;DHT22;1119;48.288;8.726;2023-07-02T13:38:35;23.90;56.30
2226;DHT22;1119;48.288;8.726;2023-07-02T13:41:22;24.00;57.20
2226;DHT22;1119;48.288;8.726;2023-07-02T13:44:11;24.00;56.40
2226;DHT22;1119;48.288;8.726;2023-07-02T13:46:59;23.90;55.60
2226;DHT22;1119;48.288;8.726;2023-07-02T13:49:47;23.80;56.60
2226;DHT22;1119;48.288;8.726;2023-07-02T13:52:34;23.90;57.50
2226;DHT22;1119;48.288;8.726;2023-07-02T13:55:22;24.10;57.00
2226;DHT22;1119;48.288;8.726;2023-07-02T13:58:13;24.10;57.10
2226;DHT22;1119;48.288;8.726;2023-07-02T14:01:02;24.10;56.10
2226;DHT22;1119;48.288;8.726;2023-07-02T14:03:50;23.90;56.40
2226;DHT22;1119;48.288;8.726;2023-07-02T14:06:39;23.80;55.60
2226;DHT22;1119;48.288;8.726;2023-07-02T14:09:35;23.80;56.20
2226;DHT22;1119;48.288;8.726;2023-07-02T14:12:24;24.00;57.00
2226;DHT22;1119;48.288;8.726;2023-07-02T14:15:12;24.30;57.50
2226;DHT22;1119;48.288;8.726;2023-07-02T14:18:01;24.40;57.40
2226;DHT22;1119;48.288;8.726;2023-07-02T14:20:48;24.50;57.40
2226;DHT22;1119;48.288;8.726;2023-07-02T14:23:36;24.30;56.90
2226;DHT22;1119;48.288;8.726;2023-07-02T14:26:23;24.30;57.60
2226;DHT22;1119;48.288;8.726;2023-07-02T14:29:11;24.40;55.90
2226;DHT22;1119;48.288;8.726;2023-07-02T14:31:59;24.60;56.70
2226;DHT22;1119;48.288;8.726;2023-07-02T14:34:48;24.50;56.50
2226;DHT22;1119;48.288;8.726;2023-07-02T14:37:35;24.50;56.10
2226;DHT22;1119;48.288;8.726;2023-07-02T14:40:23;24.70;55.80
2226;DHT22;1119;48.288;8.726;2023-07-02T14:43:11;24.40;54.20
2226;DHT22;1119;48.288;8.726;2023-07-02T14:46:00;24.30;53.70
2226;DHT22;1119;48.288;8.726;2023-07-02T14:48:49;24.20;55.00
2226;DHT22;1119;48.288;8.726;2023-07-02T14:51:38;24.00;56.90
2226;DHT22;1119;48.288;8.726;2023-07-02T14:54:25;24.10;56.90
2226;DHT22;1119;48.288;8.726;2023-07-02T14:57:13;24.20;56.90
2226;DHT22;1119;48.288;8.726;2023-07-02T15:00:04;24.40;55.80
2226;DHT22;1119;48.288;8.726;2023-07-02T15:02:53;24.60;56.60
2226;DHT22;1119;48.288;8.726;2023-07-02T15:05:41;24.90;53.30
2226;DHT22;1119;48.288;8.726;2023-07-02T15:08:30;24.70;55.10
2226;DHT22;1119;48.288;8.726;2023-07-02T15:11:18;24.60;53.20
2226;DHT22;1119;48.288;8.726;2023-07-02T15:14:06;24.30;52.60
2226;DHT22;1119;48.288;8.726;2023-07-02T15:16:53;24.30;53.50
2226;DHT22;1119;48.288;8.726;2023-07-02T15:19:41;24.30;52.80
2226;DHT22;1119;48.288;8.726;2023-07-02T15:22:29;24.10;53.80
2226;DHT22;1119;48.288;8.726;2023-07-02T15:25:18;24.00;54.70
2226;DHT22;1119;48.288;8.726;2023-07-02T15:28:06;24.10;54.10
2226;DHT22;1119;48.288;8.726;2023-07-02T15:30:54;23.90;53.30
2226;DHT22;1119;48.288;8.726;2023-07-02T15:33:43;23.50;54.10
2226;DHT22;1119;48.288;8.726;2023-07-02T15:36:31;23.40;55.90
2226;DHT22;1119;48.288;8.726;2023-07-02T15:39:21;23.20;56.60
2226;DHT22;1119;48.288;8.726;2023-07-02T15:42:12;23.10;56.90
2226;DHT22;1119;48.288;8.726;2023-07-02T15:45:00;23.10;58.00
2226;DHT22;1119;48.288;8.726;2023-07-02T15:47:48;23.10;57.30
2226;DHT22;1119;48.288;8.726;2023-07-02T15:50:35;23.10;57.40
2226;DHT22;1119;48.288;8.726;2023-07-02T15:53:23;23.30;57.80
2226;DHT22;1119;48.288;8.726;2023-07-02T15:56:11;23.40;56.30
2226;DHT22;1119;48.288;8.726;2023-07-02T15:59:00;23.60;55.90
2226;DHT22;1119;48.288;8.726;2023-07-02T16:01:49;23.60;54.50
2226;DHT22;1119;48.288;8.726;2023-07-02T16:04:36;23.60;55.20
2226;DHT22;1119;48.288;8.726;2023-07-02T16:07:26;23.40;55.10
2226;DHT22;1119;48.288;8.726;2023-07-02T16:10:13;23.20;56.70
2226;DHT22;1119;48.288;8.726;2023-07-02T16:13:01;23.30;57.00
2226;DHT22;1119;48.288;8.726;2023-07-02T16:15:50;23.40;57.70
2226;DHT22;1119;48.288;8.726;2023-07-02T16:18:38;23.60;57.50
2226;DHT22;1119;48.288;8.726;2023-07-02T16:21:25;23.80;56.90
2226;DHT22;1119;48.288;8.726;2023-07-02T16:24:17;23.90;56.70
2226;DHT22;1119;48.288;8.726;2023-07-02T16:27:08;23.90;57.20
2226;DHT22;1119;48.288;8.726;2023-07-02T16:29:56;23.90;56.00
2226;DHT22;1119;48.288;8.726;2023-07-02T16:32:45;23.80;56.70
2226;DHT22;1119;48.288;8.726;2023-07-02T16:35:33;23.70;56.80
2226;DHT22;1119;48.288;8.726;2023-07-02T16:38:21;23.40;57.20
2226;DHT22;1119;48.288;8.726;2023-07-02T16:41:08;23.40;57.50
2226;DHT22;1119;48.288;8.726;2023-07-02T16:43:57;23.50;56.90
2226;DHT22;1119;48.288;8.726;2023-07-02T16:46:45;23.60;57.20
2226;DHT22;1119;48.288;8.726;2023-07-02T16:49:35;23.60;57.30
2226;DHT22;1119;48.288;8.726;2023-07-02T16:52:23;23.70;56.60
2226;DHT22;1119;48.288;8.726;2023-07-02T16:55:10;23.60;57.00
2226;DHT22;1119;48.288;8.726;2023-07-02T16:57:59;23.60;56.30
2226;DHT22;1119;48.288;8.726;2023-07-02T17:00:46;23.70;56.30
2226;DHT22;1119;48.288;8.726;2023-07-02T17:03:34;23.60;57.00
2226;DHT22;1119;48.288;8.726;2023-07-02T17:06:23;23.60;56.80
2226;DHT22;1119;48.288;8.726;2023-07-02T17:09:20;23.60;56.00
2226;DHT22;1119;48.288;8.726;2023-07-02T17:12:14;23.50;55.20
2226;DHT22;1119;48.288;8.726;2023-07-02T17:15:04;23.50;56.10
2226;DHT22;1119;48.288;8.726;2023-07-02T17:17:52;23.60;55.80
2226;DHT22;1119;48.288;8.726;2023-07-02T17:20:40;23.50;55.00
2226;DHT22;1119;48.288;8.726;2023-07-02T17:23:29;23.30;54.20
2226;DHT22;1119;48.288;8.726;2023-07-02T17:26:16;23.20;53.90
2226;DHT22;1119;48.288;8.726;2023-07-02T17:29:04;23.00;54.60
2226;DHT22;1119;48.288;8.726;2023-07-02T17:31:53;22.90;55.00
2226;DHT22;1119;48.288;8.726;2023-07-02T17:34:41;22.80;55.20
2226;DHT22;1119;48.288;8.726;2023-07-02T17:37:29;22.80;55.30
2226;DHT22;1119;48.288;8.726;2023-07-02T17:40:18;22.80;56.00
2226;DHT22;1119;48.288;8.726;2023-07-02T17:43:05;22.80;56.10
2226;DHT22;1119;48.288;8.726;2023-07-02T17:45:53;22.70;55.90
2226;DHT22;1119;48.288;8.726;2023-07-02T17:48:41;22.60;56.00
2226;DHT22;1119;48.288;8.726;2023-07-02T17:51:29;22.60;55.50
2226;DHT22;1119;48.288;8.726;2023-07-02T17:54:17;22.50;56.30
2226;DHT22;1119;48.288;8.726;2023-07-02T17:57:09;22.40;56.80
2226;DHT22;1119;48.288;8.726;2023-07-02T17:59:57;22.40;56.60
2226;DHT22;1119;48.288;8.726;2023-07-02T18:02:45;22.30;56.10
2226;DHT22;1119;48.288;8.726;2023-07-02T18:05:33;22.30;56.80
2226;DHT22;1119;48.288;8.726;2023-07-02T18:08:21;22.30;56.90
2226;DHT22;1119;48.288;8.726;2023-07-02T18:11:10;22.30;56.90
2226;DHT22;1119;48.288;8.726;2023-07-02T18:13:59;22.30;56.80
2226;DHT22;1119;48.288;8.726;2023-07-02T18:16:47;22.10;56.50
2226;DHT22;1119;48.288;8.726;2023-07-02T18:19:34;22.10;56.90
2226;DHT22;1119;48.288;8.726;2023-07-02T18:22:22;22.10;57.30